sensor_id;sensor_type;location;lat;lon;timestamp;P1;durP1;ratioP1;P2;durP2;ratioP2
7919;SDS011;18778;47.610;9.776;2023-02-15T00:00:32;40.30;;;23.83;;
7919;SDS011;18778;47.610;9.776;2023-02-15T00:02:58;45.50;;;23.83;;
7919;SDS011;18778;47.610;9.776;2023-02-15T00:05:23;49.20;;;24.03;;
7919;SDS011;18778;47.610;9.776;2023-02-15T00:07:49;40.80;;;23.10;;
7919;SDS011;18778;47.610;9.776;2023-02-15T00:10:14;40.77;;;23.17;;
7919;SDS011;18778;47.610;9.776;2023-02-15T00:12:40;41.23;;;22.23;;
7919;SDS011;18778;47.610;9.776;2023-02-15T00:15:06;33.63;;;21.23;;
7919;SDS011;18778;47.610;9.776;2023-02-15T00:17:32;40.27;;;22.77;;
7919;SDS011;18778;47.610;9.776;2023-02-15T00:19:57;43.00;;;23.47;;
7919;SDS011;18778;47.610;9.776;2023-02-15T00:22:23;47.47;;;23.87;;
7919;SDS011;18778;47.610;9.776;2023-02-15T00:24:48;45.70;;;26.43;;
7919;SDS011;18778;47.610;9.776;2023-02-15T00:27:14;46.70;;;24.57;;
7919;SDS011;18778;47.610;9.776;2023-02-15T00:29:40;50.27;;;24.83;;
7919;SDS011;18778;47.610;9.776;2023-02-15T00:32:05;43.70;;;23.80;;
7919;SDS011;18778;47.610;9.776;2023-02-15T00:34:31;48.33;;;24.77;;
7919;SDS011;18778;47.610;9.776;2023-02-15T00:36:57;44.13;;;22.83;;
7919;SDS011;18778;47.610;9.776;2023-02-15T00:39:22;44.17;;;24.03;;
7919;SDS011;18778;47.610;9.776;2023-02-15T00:41:48;41.07;;;23.63;;
7919;SDS011;18778;47.610;9.776;2023-02-15T00:44:14;43.30;;;24.40;;
7919;SDS011;18778;47.610;9.776;2023-02-15T00:46:40;37.70;;;22.47;;
7919;SDS011;18778;47.610;9.776;2023-02-15T00:49:05;40.10;;;21.80;;
7919;SDS011;18778;47.610;9.776;2023-02-15T00:51:31;32.00;;;19.50;;
7919;SDS011;18778;47.610;9.776;2023-02-15T00:53:57;31.13;;;19.10;;
7919;SDS011;18778;47.610;9.776;2023-02-15T00:56:23;31.00;;;18.40;;
7919;SDS011;18778;47.610;9.776;2023-02-15T00:58:49;29.63;;;17.87;;
7919;SDS011;18778;47.610;9.776;2023-02-15T01:01:15;33.43;;;18.53;;
7919;SDS011;18778;47.610;9.776;2023-02-15T01:03:42;31.07;;;18.00;;
7919;SDS011;18778;47.610;9.776;2023-02-15T01:06:08;39.17;;;18.87;;
7919;SDS011;18778;47.610;9.776;2023-02-15T01:08:34;45.43;;;19.27;;
7919;SDS011;18778;47.610;9.776;2023-02-15T01:11:07;36.83;;;20.17;;
7919;SDS011;18778;47.610;9.776;2023-02-15T01:13:35;73.63;;;20.53;;
7919;SDS011;18778;47.610;9.776;2023-02-15T01:16:02;61.43;;;22.90;;
7919;SDS011;18778;47.610;9.776;2023-02-15T01:18:28;59.80;;;23.20;;
7919;SDS011;18778;47.610;9.776;2023-02-15T01:20:54;53.47;;;22.90;;
7919;SDS011;18778;47.610;9.776;2023-02-15T01:23:20;53.43;;;25.17;;
7919;SDS011;18778;47.610;9.776;2023-02-15T01:25:46;95.03;;;23.70;;
7919;SDS011;18778;47.610;9.776;2023-02-15T01:28:11;71.17;;;23.30;;
7919;SDS011;18778;47.610;9.776;2023-02-15T01:30:37;81.17;;;25.17;;
7919;SDS011;18778;47.610;9.776;2023-02-15T01:33:03;72.30;;;24.10;;
7919;SDS011;18778;47.610;9.776;2023-02-15T01:35:28;79.17;;;24.80;;
7919;SDS011;18778;47.610;9.776;2023-02-15T01:37:55;61.30;;;24.33;;
7919;SDS011;18778;47.610;9.776;2023-02-15T01:40:21;65.90;;;23.37;;
7919;SDS011;18778;47.610;9.776;2023-02-15T01:42:51;174.20;;;26.37;;
7919;SDS011;18778;47.610;9.776;2023-02-15T01:45:26;63.70;;;23.77;;
7919;SDS011;18778;47.610;9.776;2023-02-15T01:48:08;140.67;;;24.77;;
7919;SDS011;18778;47.610;9.776;2023-02-15T01:50:53;56.67;;;23.37;;
7919;SDS011;18778;47.610;9.776;2023-02-15T01:53:24;42.23;;;22.63;;
7919;SDS011;18778;47.610;9.776;2023-02-15T01:55:58;42.17;;;22.43;;
7919;SDS011;18778;47.610;9.776;2023-02-15T01:58:27;46.33;;;22.73;;
7919;SDS011;18778;47.610;9.776;2023-02-15T02:00:54;56.50;;;24.80;;
7919;SDS011;18778;47.610;9.776;2023-02-15T02:04:09;68.13;;;25.43;;
7919;SDS011;18778;47.610;9.776;2023-02-15T02:06:15;57.60;;;24.47;;
7919;SDS011;18778;47.610;9.776;2023-02-15T02:08:42;143.30;;;26.07;;
7919;SDS011;18778;47.610;9.776;2023-02-15T02:11:12;84.20;;;24.63;;
7919;SDS011;18778;47.610;9.776;2023-02-15T02:13:39;118.97;;;26.07;;
7919;SDS011;18778;47.610;9.776;2023-02-15T02:16:12;96.50;;;24.50;;
7919;SDS011;18778;47.610;9.776;2023-02-15T02:19:10;81.43;;;23.47;;
7919;SDS011;18778;47.610;9.776;2023-02-15T02:27:39;64.80;;;23.10;;
7919;SDS011;18778;47.610;9.776;2023-02-15T02:33:08;59.50;;;23.73;;
7919;SDS011;18778;47.610;9.776;2023-02-15T02:35:44;79.37;;;23.90;;
7919;SDS011;18778;47.610;9.776;2023-02-15T02:41:12;54.43;;;24.47;;
7919;SDS011;18778;47.610;9.776;2023-02-15T02:46:41;52.87;;;24.93;;
7919;SDS011;18778;47.610;9.776;2023-02-15T02:49:29;100.60;;;26.23;;
7919;SDS011;18778;47.610;9.776;2023-02-15T02:52:04;70.43;;;25.37;;
7919;SDS011;18778;47.610;9.776;2023-02-15T02:54:32;62.90;;;25.07;;
7919;SDS011;18778;47.610;9.776;2023-02-15T02:57:01;80.70;;;24.40;;
7919;SDS011;18778;47.610;9.776;2023-02-15T02:59:33;51.40;;;24.43;;
7919;SDS011;18778;47.610;9.776;2023-02-15T03:04:44;119.50;;;25.87;;
7919;SDS011;18778;47.610;9.776;2023-02-15T03:07:14;71.73;;;24.23;;
7919;SDS011;18778;47.610;9.776;2023-02-15T03:09:48;57.73;;;24.37;;
7919;SDS011;18778;47.610;9.776;2023-02-15T03:12:18;129.70;;;27.63;;
7919;SDS011;18778;47.610;9.776;2023-02-15T03:14:48;62.37;;;26.53;;
7919;SDS011;18778;47.610;9.776;2023-02-15T03:17:17;69.33;;;25.00;;
7919;SDS011;18778;47.610;9.776;2023-02-15T03:19:45;62.43;;;24.17;;
7919;SDS011;18778;47.610;9.776;2023-02-15T03:22:17;73.73;;;24.53;;
7919;SDS011;18778;47.610;9.776;2023-02-15T03:24:51;51.47;;;23.80;;
7919;SDS011;18778;47.610;9.776;2023-02-15T03:27:22;78.77;;;24.87;;
7919;SDS011;18778;47.610;9.776;2023-02-15T03:29:52;63.83;;;24.57;;
7919;SDS011;18778;47.610;9.776;2023-02-15T03:32:20;53.40;;;25.37;;
7919;SDS011;18778;47.610;9.776;2023-02-15T03:34:46;135.93;;;26.67;;
7919;SDS011;18778;47.610;9.776;2023-02-15T03:43:19;62.23;;;24.10;;
7919;SDS011;18778;47.610;9.776;2023-02-15T03:45:53;222.27;;;31.00;;
7919;SDS011;18778;47.610;9.776;2023-02-15T03:48:26;143.87;;;29.13;;
7919;SDS011;18778;47.610;9.776;2023-02-15T03:50:56;191.00;;;30.30;;
7919;SDS011;18778;47.610;9.776;2023-02-15T03:53:45;62.13;;;25.37;;
7919;SDS011;18778;47.610;9.776;2023-02-15T03:56:12;57.30;;;25.47;;
7919;SDS011;18778;47.610;9.776;2023-02-15T03:58:37;81.00;;;26.23;;
7919;SDS011;18778;47.610;9.776;2023-02-15T04:01:25;96.10;;;27.57;;
7919;SDS011;18778;47.610;9.776;2023-02-15T04:04:23;92.53;;;26.27;;
7919;SDS011;18778;47.610;9.776;2023-02-15T04:06:51;182.50;;;29.87;;
7919;SDS011;18778;47.610;9.776;2023-02-15T04:09:16;93.13;;;29.60;;
7919;SDS011;18778;47.610;9.776;2023-02-15T04:12:00;201.13;;;31.13;;
7919;SDS011;18778;47.610;9.776;2023-02-15T04:14:26;208.97;;;30.33;;
7919;SDS011;18778;47.610;9.776;2023-02-15T04:17:10;105.93;;;27.57;;
7919;SDS011;18778;47.610;9.776;2023-02-15T04:19:35;125.80;;;28.53;;
7919;SDS011;18778;47.610;9.776;2023-02-15T04:22:19;84.50;;;26.10;;
7919;SDS011;18778;47.610;9.776;2023-02-15T04:25:04;52.60;;;24.00;;
7919;SDS011;18778;47.610;9.776;2023-02-15T04:27:40;78.97;;;26.07;;
7919;SDS011;18778;47.610;9.776;2023-02-15T04:30:07;129.77;;;26.83;;
7919;SDS011;18778;47.610;9.776;2023-02-15T04:32:34;64.13;;;26.77;;
7919;SDS011;18778;47.610;9.776;2023-02-15T04:35:00;85.80;;;26.53;;
7919;SDS011;18778;47.610;9.776;2023-02-15T04:37:26;178.13;;;28.40;;
7919;SDS011;18778;47.610;9.776;2023-02-15T04:39:52;178.80;;;28.80;;
7919;SDS011;18778;47.610;9.776;2023-02-15T04:42:17;76.57;;;26.87;;
7919;SDS011;18778;47.610;9.776;2023-02-15T04:44:43;140.93;;;27.13;;
7919;SDS011;18778;47.610;9.776;2023-02-15T04:47:09;134.47;;;28.27;;
7919;SDS011;18778;47.610;9.776;2023-02-15T04:49:34;216.70;;;28.87;;
7919;SDS011;18778;47.610;9.776;2023-02-15T04:52:00;89.77;;;27.83;;
7919;SDS011;18778;47.610;9.776;2023-02-15T04:54:25;90.73;;;28.83;;
7919;SDS011;18778;47.610;9.776;2023-02-15T04:56:51;120.20;;;29.60;;
7919;SDS011;18778;47.610;9.776;2023-02-15T04:59:16;132.47;;;28.13;;
7919;SDS011;18778;47.610;9.776;2023-02-15T05:01:42;72.83;;;26.10;;
7919;SDS011;18778;47.610;9.776;2023-02-15T05:04:07;117.03;;;26.97;;
7919;SDS011;18778;47.610;9.776;2023-02-15T05:06:34;61.57;;;25.93;;
7919;SDS011;18778;47.610;9.776;2023-02-15T05:08:59;65.10;;;25.23;;
7919;SDS011;18778;47.610;9.776;2023-02-15T05:11:25;186.80;;;28.10;;
7919;SDS011;18778;47.610;9.776;2023-02-15T05:13:51;124.13;;;25.77;;
7919;SDS011;18778;47.610;9.776;2023-02-15T05:16:17;87.57;;;25.03;;
7919;SDS011;18778;47.610;9.776;2023-02-15T05:18:42;200.57;;;27.77;;
7919;SDS011;18778;47.610;9.776;2023-02-15T05:21:08;102.83;;;25.00;;
7919;SDS011;18778;47.610;9.776;2023-02-15T05:23:34;325.50;;;32.77;;
7919;SDS011;18778;47.610;9.776;2023-02-15T05:26:00;78.97;;;23.53;;
7919;SDS011;18778;47.610;9.776;2023-02-15T05:28:44;178.70;;;27.60;;
7919;SDS011;18778;47.610;9.776;2023-02-15T05:31:10;128.37;;;25.97;;
7919;SDS011;18778;47.610;9.776;2023-02-15T05:33:41;119.63;;;25.83;;
7919;SDS011;18778;47.610;9.776;2023-02-15T05:36:10;130.23;;;23.37;;
7919;SDS011;18778;47.610;9.776;2023-02-15T05:38:36;67.90;;;22.80;;
7919;SDS011;18778;47.610;9.776;2023-02-15T05:41:03;80.43;;;21.13;;
7919;SDS011;18778;47.610;9.776;2023-02-15T05:43:32;268.70;;;28.20;;
7919;SDS011;18778;47.610;9.776;2023-02-15T05:45:58;263.00;;;28.97;;
7919;SDS011;18778;47.610;9.776;2023-02-15T05:48:25;173.03;;;26.00;;
7919;SDS011;18778;47.610;9.776;2023-02-15T05:50:59;209.60;;;25.77;;
7919;SDS011;18778;47.610;9.776;2023-02-15T05:53:31;74.03;;;22.83;;
7919;SDS011;18778;47.610;9.776;2023-02-15T05:56:00;68.10;;;24.03;;
7919;SDS011;18778;47.610;9.776;2023-02-15T05:58:27;105.97;;;23.90;;
7919;SDS011;18778;47.610;9.776;2023-02-15T06:00:55;184.67;;;27.17;;
7919;SDS011;18778;47.610;9.776;2023-02-15T06:03:23;82.97;;;24.77;;
7919;SDS011;18778;47.610;9.776;2023-02-15T06:05:51;153.27;;;26.17;;
7919;SDS011;18778;47.610;9.776;2023-02-15T06:11:49;51.87;;;22.60;;
7919;SDS011;18778;47.610;9.776;2023-02-15T06:14:24;93.03;;;25.13;;
7919;SDS011;18778;47.610;9.776;2023-02-15T06:16:53;131.73;;;26.90;;
7919;SDS011;18778;47.610;9.776;2023-02-15T06:19:25;89.77;;;26.30;;
7919;SDS011;18778;47.610;9.776;2023-02-15T06:21:54;87.07;;;31.23;;
7919;SDS011;18778;47.610;9.776;2023-02-15T06:24:20;73.37;;;29.00;;
7919;SDS011;18778;47.610;9.776;2023-02-15T06:26:45;50.33;;;23.47;;
7919;SDS011;18778;47.610;9.776;2023-02-15T06:29:11;76.37;;;25.70;;
7919;SDS011;18778;47.610;9.776;2023-02-15T06:31:37;48.07;;;22.97;;
7919;SDS011;18778;47.610;9.776;2023-02-15T06:34:02;49.73;;;22.67;;
7919;SDS011;18778;47.610;9.776;2023-02-15T06:36:28;84.33;;;24.97;;
7919;SDS011;18778;47.610;9.776;2023-02-15T06:38:55;47.50;;;23.87;;
7919;SDS011;18778;47.610;9.776;2023-02-15T06:41:21;46.90;;;26.30;;
7919;SDS011;18778;47.610;9.776;2023-02-15T06:43:46;45.83;;;25.43;;
7919;SDS011;18778;47.610;9.776;2023-02-15T06:46:12;55.30;;;22.83;;
7919;SDS011;18778;47.610;9.776;2023-02-15T06:48:38;42.00;;;23.63;;
7919;SDS011;18778;47.610;9.776;2023-02-15T06:51:03;46.90;;;23.63;;
7919;SDS011;18778;47.610;9.776;2023-02-15T06:53:29;50.40;;;23.13;;
7919;SDS011;18778;47.610;9.776;2023-02-15T06:56:05;42.33;;;21.70;;
7919;SDS011;18778;47.610;9.776;2023-02-15T06:58:33;40.33;;;21.67;;
7919;SDS011;18778;47.610;9.776;2023-02-15T07:01:03;42.30;;;23.20;;
7919;SDS011;18778;47.610;9.776;2023-02-15T07:03:29;45.87;;;21.07;;
7919;SDS011;18778;47.610;9.776;2023-02-15T07:05:56;50.93;;;20.93;;
7919;SDS011;18778;47.610;9.776;2023-02-15T07:08:23;40.07;;;21.40;;
7919;SDS011;18778;47.610;9.776;2023-02-15T07:10:49;62.57;;;20.40;;
7919;SDS011;18778;47.610;9.776;2023-02-15T07:13:15;56.27;;;19.83;;
7919;SDS011;18778;47.610;9.776;2023-02-15T07:15:41;85.53;;;19.33;;
7919;SDS011;18778;47.610;9.776;2023-02-15T07:18:07;69.37;;;19.17;;
7919;SDS011;18778;47.610;9.776;2023-02-15T07:20:34;69.47;;;20.97;;
7919;SDS011;18778;47.610;9.776;2023-02-15T07:23:00;34.97;;;18.50;;
7919;SDS011;18778;47.610;9.776;2023-02-15T07:25:26;37.60;;;18.17;;
7919;SDS011;18778;47.610;9.776;2023-02-15T07:27:58;42.83;;;18.83;;
7919;SDS011;18778;47.610;9.776;2023-02-15T07:30:28;51.10;;;20.13;;
7919;SDS011;18778;47.610;9.776;2023-02-15T07:32:57;48.83;;;20.33;;
7919;SDS011;18778;47.610;9.776;2023-02-15T07:35:48;32.07;;;19.83;;
7919;SDS011;18778;47.610;9.776;2023-02-15T07:38:14;74.87;;;20.60;;
7919;SDS011;18778;47.610;9.776;2023-02-15T07:40:40;78.77;;;19.63;;
7919;SDS011;18778;47.610;9.776;2023-02-15T07:43:05;67.33;;;20.77;;
7919;SDS011;18778;47.610;9.776;2023-02-15T07:45:31;38.63;;;19.90;;
7919;SDS011;18778;47.610;9.776;2023-02-15T07:47:56;31.33;;;19.13;;
7919;SDS011;18778;47.610;9.776;2023-02-15T07:50:22;74.80;;;27.30;;
7919;SDS011;18778;47.610;9.776;2023-02-15T07:52:47;88.03;;;24.60;;
7919;SDS011;18778;47.610;9.776;2023-02-15T07:55:13;50.53;;;20.93;;
7919;SDS011;18778;47.610;9.776;2023-02-15T07:57:42;144.87;;;20.47;;
7919;SDS011;18778;47.610;9.776;2023-02-15T08:00:09;67.07;;;19.43;;
7919;SDS011;18778;47.610;9.776;2023-02-15T08:02:36;63.00;;;18.47;;
7919;SDS011;18778;47.610;9.776;2023-02-15T08:05:02;118.97;;;19.40;;
7919;SDS011;18778;47.610;9.776;2023-02-15T08:07:28;104.77;;;19.27;;
7919;SDS011;18778;47.610;9.776;2023-02-15T08:09:53;50.30;;;18.37;;
7919;SDS011;18778;47.610;9.776;2023-02-15T08:12:19;84.83;;;18.03;;
7919;SDS011;18778;47.610;9.776;2023-02-15T08:14:44;125.60;;;18.77;;
7919;SDS011;18778;47.610;9.776;2023-02-15T08:17:10;69.93;;;15.93;;
7919;SDS011;18778;47.610;9.776;2023-02-15T08:19:36;85.53;;;18.47;;
7919;SDS011;18778;47.610;9.776;2023-02-15T08:22:02;118.60;;;17.10;;
7919;SDS011;18778;47.610;9.776;2023-02-15T08:24:30;50.33;;;16.70;;
7919;SDS011;18778;47.610;9.776;2023-02-15T08:26:57;56.83;;;16.00;;
7919;SDS011;18778;47.610;9.776;2023-02-15T08:29:25;46.67;;;16.93;;
7919;SDS011;18778;47.610;9.776;2023-02-15T08:31:54;52.87;;;16.50;;
7919;SDS011;18778;47.610;9.776;2023-02-15T08:34:37;67.83;;;19.13;;
7919;SDS011;18778;47.610;9.776;2023-02-15T08:37:07;30.57;;;17.40;;
7919;SDS011;18778;47.610;9.776;2023-02-15T08:39:34;55.27;;;19.80;;
7919;SDS011;18778;47.610;9.776;2023-02-15T08:41:59;56.37;;;20.17;;
7919;SDS011;18778;47.610;9.776;2023-02-15T08:44:25;72.47;;;20.20;;
7919;SDS011;18778;47.610;9.776;2023-02-15T08:46:51;56.60;;;21.30;;
7919;SDS011;18778;47.610;9.776;2023-02-15T08:49:20;56.33;;;18.07;;
7919;SDS011;18778;47.610;9.776;2023-02-15T08:51:47;62.97;;;18.17;;
7919;SDS011;18778;47.610;9.776;2023-02-15T08:54:14;59.80;;;20.33;;
7919;SDS011;18778;47.610;9.776;2023-02-15T08:56:41;75.27;;;16.90;;
7919;SDS011;18778;47.610;9.776;2023-02-15T08:59:11;63.23;;;17.57;;
7919;SDS011;18778;47.610;9.776;2023-02-15T09:01:42;67.10;;;17.27;;
7919;SDS011;18778;47.610;9.776;2023-02-15T09:04:08;35.60;;;17.67;;
7919;SDS011;18778;47.610;9.776;2023-02-15T09:06:34;37.97;;;17.13;;
7919;SDS011;18778;47.610;9.776;2023-02-15T09:09:04;84.77;;;18.20;;
7919;SDS011;18778;47.610;9.776;2023-02-15T09:11:30;38.43;;;15.73;;
7919;SDS011;18778;47.610;9.776;2023-02-15T09:14:00;37.20;;;17.60;;
7919;SDS011;18778;47.610;9.776;2023-02-15T09:16:29;48.73;;;16.23;;
7919;SDS011;18778;47.610;9.776;2023-02-15T09:18:56;26.97;;;15.80;;
7919;SDS011;18778;47.610;9.776;2023-02-15T09:21:29;25.07;;;16.23;;
7919;SDS011;18778;47.610;9.776;2023-02-15T09:23:56;37.27;;;16.70;;
7919;SDS011;18778;47.610;9.776;2023-02-15T09:26:24;45.77;;;18.30;;
7919;SDS011;18778;47.610;9.776;2023-02-15T09:28:52;37.73;;;16.87;;
7919;SDS011;18778;47.610;9.776;2023-02-15T09:31:21;47.70;;;21.07;;
7919;SDS011;18778;47.610;9.776;2023-02-15T09:33:48;41.80;;;22.60;;
7919;SDS011;18778;47.610;9.776;2023-02-15T09:38:39;39.17;;;22.37;;
7919;SDS011;18778;47.610;9.776;2023-02-15T09:41:12;49.60;;;25.57;;
7919;SDS011;18778;47.610;9.776;2023-02-15T10:00:43;87.97;;;44.93;;
7919;SDS011;18778;47.610;9.776;2023-02-15T10:11:53;95.33;;;47.67;;
7919;SDS011;18778;47.610;9.776;2023-02-15T10:25:40;61.33;;;36.70;;
7919;SDS011;18778;47.610;9.776;2023-02-15T10:33:38;47.70;;;29.13;;
7919;SDS011;18778;47.610;9.776;2023-02-15T10:36:09;38.80;;;25.90;;
7919;SDS011;18778;47.610;9.776;2023-02-15T10:41:30;32.10;;;21.00;;
7919;SDS011;18778;47.610;9.776;2023-02-15T10:44:41;55.97;;;35.70;;
7919;SDS011;18778;47.610;9.776;2023-02-15T10:47:27;55.80;;;35.73;;
7919;SDS011;18778;47.610;9.776;2023-02-15T10:50:06;62.00;;;40.30;;
7919;SDS011;18778;47.610;9.776;2023-02-15T10:52:46;56.93;;;37.43;;
7919;SDS011;18778;47.610;9.776;2023-02-15T11:01:17;44.07;;;31.27;;
7919;SDS011;18778;47.610;9.776;2023-02-15T11:04:08;41.53;;;29.93;;
7919;SDS011;18778;47.610;9.776;2023-02-15T11:06:43;42.73;;;29.17;;
7919;SDS011;18778;47.610;9.776;2023-02-15T11:09:16;36.47;;;26.03;;
7919;SDS011;18778;47.610;9.776;2023-02-15T11:11:47;34.10;;;25.07;;
7919;SDS011;18778;47.610;9.776;2023-02-15T11:14:17;35.23;;;26.40;;
7919;SDS011;18778;47.610;9.776;2023-02-15T11:16:53;30.43;;;22.97;;
7919;SDS011;18778;47.610;9.776;2023-02-15T11:19:23;32.10;;;23.93;;
7919;SDS011;18778;47.610;9.776;2023-02-15T11:21:58;33.60;;;25.90;;
7919;SDS011;18778;47.610;9.776;2023-02-15T11:24:27;26.40;;;21.13;;
7919;SDS011;18778;47.610;9.776;2023-02-15T11:26:56;24.80;;;20.13;;
7919;SDS011;18778;47.610;9.776;2023-02-15T11:29:31;28.40;;;20.73;;
7919;SDS011;18778;47.610;9.776;2023-02-15T11:35:11;23.43;;;17.63;;
7919;SDS011;18778;47.610;9.776;2023-02-15T11:40:21;18.97;;;15.20;;
7919;SDS011;18778;47.610;9.776;2023-02-15T11:43:10;20.33;;;15.63;;
7919;SDS011;18778;47.610;9.776;2023-02-15T11:45:43;15.13;;;12.73;;
7919;SDS011;18778;47.610;9.776;2023-02-15T11:48:14;16.70;;;12.60;;
7919;SDS011;18778;47.610;9.776;2023-02-15T11:50:40;16.90;;;14.03;;
7919;SDS011;18778;47.610;9.776;2023-02-15T11:53:11;17.20;;;13.67;;
7919;SDS011;18778;47.610;9.776;2023-02-15T11:55:45;17.07;;;13.20;;
7919;SDS011;18778;47.610;9.776;2023-02-15T12:06:47;12.80;;;11.03;;
7919;SDS011;18778;47.610;9.776;2023-02-15T12:11:52;12.43;;;11.13;;
7919;SDS011;18778;47.610;9.776;2023-02-15T12:14:17;12.33;;;11.00;;
7919;SDS011;18778;47.610;9.776;2023-02-15T12:16:49;12.53;;;11.23;;
7919;SDS011;18778;47.610;9.776;2023-02-15T12:19:24;13.87;;;11.23;;
7919;SDS011;18778;47.610;9.776;2023-02-15T12:21:56;13.53;;;11.47;;
7919;SDS011;18778;47.610;9.776;2023-02-15T12:24:25;14.57;;;13.03;;
7919;SDS011;18778;47.610;9.776;2023-02-15T12:27:35;14.40;;;11.97;;
7919;SDS011;18778;47.610;9.776;2023-02-15T12:30:30;13.67;;;12.00;;
7919;SDS011;18778;47.610;9.776;2023-02-15T12:32:53;14.63;;;11.37;;
7919;SDS011;18778;47.610;9.776;2023-02-15T12:37:56;13.50;;;11.60;;
7919;SDS011;18778;47.610;9.776;2023-02-15T12:40:30;14.20;;;11.77;;
7919;SDS011;18778;47.610;9.776;2023-02-15T12:42:58;13.83;;;11.37;;
7919;SDS011;18778;47.610;9.776;2023-02-15T12:45:28;16.00;;;14.13;;
7919;SDS011;18778;47.610;9.776;2023-02-15T12:50:51;18.37;;;14.17;;
7919;SDS011;18778;47.610;9.776;2023-02-15T12:53:32;20.37;;;15.60;;
7919;SDS011;18778;47.610;9.776;2023-02-15T12:56:06;19.87;;;15.53;;
7919;SDS011;18778;47.610;9.776;2023-02-15T12:58:34;20.73;;;16.13;;
7919;SDS011;18778;47.610;9.776;2023-02-15T13:01:19;22.17;;;16.53;;
7919;SDS011;18778;47.610;9.776;2023-02-15T13:03:54;19.83;;;16.00;;
7919;SDS011;18778;47.610;9.776;2023-02-15T13:06:20;22.17;;;16.33;;
7919;SDS011;18778;47.610;9.776;2023-02-15T13:08:47;23.03;;;16.23;;
7919;SDS011;18778;47.610;9.776;2023-02-15T13:11:19;24.03;;;17.53;;
7919;SDS011;18778;47.610;9.776;2023-02-15T13:14:42;19.93;;;15.87;;
7919;SDS011;18778;47.610;9.776;2023-02-15T13:16:56;25.10;;;16.10;;
7919;SDS011;18778;47.610;9.776;2023-02-15T13:22:00;23.33;;;15.87;;
7919;SDS011;18778;47.610;9.776;2023-02-15T13:24:32;23.57;;;16.77;;
7919;SDS011;18778;47.610;9.776;2023-02-15T13:27:02;22.23;;;16.03;;
7919;SDS011;18778;47.610;9.776;2023-02-15T13:29:29;22.57;;;16.33;;
7919;SDS011;18778;47.610;9.776;2023-02-15T13:32:07;21.07;;;15.63;;
7919;SDS011;18778;47.610;9.776;2023-02-15T13:34:40;20.67;;;15.87;;
7919;SDS011;18778;47.610;9.776;2023-02-15T13:37:15;22.57;;;16.23;;
7919;SDS011;18778;47.610;9.776;2023-02-15T13:42:40;20.70;;;15.43;;
7919;SDS011;18778;47.610;9.776;2023-02-15T13:50:42;21.63;;;15.83;;
7919;SDS011;18778;47.610;9.776;2023-02-15T13:58:21;24.17;;;16.33;;
7919;SDS011;18778;47.610;9.776;2023-02-15T14:01:10;18.63;;;15.07;;
7919;SDS011;18778;47.610;9.776;2023-02-15T14:09:38;20.83;;;16.97;;
7919;SDS011;18778;47.610;9.776;2023-02-15T14:26:09;22.70;;;16.07;;
7919;SDS011;18778;47.610;9.776;2023-02-15T14:31:38;21.27;;;16.87;;
7919;SDS011;18778;47.610;9.776;2023-02-15T14:34:21;21.03;;;16.23;;
7919;SDS011;18778;47.610;9.776;2023-02-15T14:36:50;25.50;;;16.70;;
7919;SDS011;18778;47.610;9.776;2023-02-15T14:42:45;28.47;;;17.97;;
7919;SDS011;18778;47.610;9.776;2023-02-15T14:45:22;23.53;;;17.23;;
7919;SDS011;18778;47.610;9.776;2023-02-15T14:48:10;28.53;;;19.93;;
7919;SDS011;18778;47.610;9.776;2023-02-15T14:50:45;27.10;;;18.40;;
7919;SDS011;18778;47.610;9.776;2023-02-15T14:59:28;28.67;;;19.17;;
7919;SDS011;18778;47.610;9.776;2023-02-15T15:01:58;27.07;;;18.00;;
7919;SDS011;18778;47.610;9.776;2023-02-15T15:04:46;27.83;;;18.40;;
7919;SDS011;18778;47.610;9.776;2023-02-15T15:07:22;28.97;;;19.10;;
7919;SDS011;18778;47.610;9.776;2023-02-15T15:09:59;32.53;;;19.83;;
7919;SDS011;18778;47.610;9.776;2023-02-15T15:12:51;33.97;;;19.67;;
7919;SDS011;18778;47.610;9.776;2023-02-15T15:17:56;30.27;;;18.60;;
7919;SDS011;18778;47.610;9.776;2023-02-15T15:20:37;42.60;;;24.37;;
7919;SDS011;18778;47.610;9.776;2023-02-15T15:25:47;31.03;;;19.57;;
7919;SDS011;18778;47.610;9.776;2023-02-15T15:31:01;31.73;;;19.70;;
7919;SDS011;18778;47.610;9.776;2023-02-15T15:33:52;29.70;;;18.73;;
7919;SDS011;18778;47.610;9.776;2023-02-15T15:45:08;31.70;;;20.17;;
7919;SDS011;18778;47.610;9.776;2023-02-15T15:53:44;35.73;;;20.17;;
7919;SDS011;18778;47.610;9.776;2023-02-15T15:56:15;32.37;;;20.03;;
7919;SDS011;18778;47.610;9.776;2023-02-15T15:58:46;33.80;;;19.53;;
7919;SDS011;18778;47.610;9.776;2023-02-15T16:01:16;40.27;;;21.23;;
7919;SDS011;18778;47.610;9.776;2023-02-15T16:03:51;39.90;;;21.97;;
7919;SDS011;18778;47.610;9.776;2023-02-15T16:06:29;32.63;;;20.60;;
7919;SDS011;18778;47.610;9.776;2023-02-15T16:09:19;34.17;;;20.50;;
7919;SDS011;18778;47.610;9.776;2023-02-15T16:11:53;37.87;;;22.00;;
7919;SDS011;18778;47.610;9.776;2023-02-15T16:14:26;38.30;;;22.60;;
7919;SDS011;18778;47.610;9.776;2023-02-15T16:17:07;42.23;;;21.77;;
7919;SDS011;18778;47.610;9.776;2023-02-15T16:19:42;33.70;;;20.97;;
7919;SDS011;18778;47.610;9.776;2023-02-15T16:22:18;35.37;;;21.57;;
7919;SDS011;18778;47.610;9.776;2023-02-15T16:24:51;33.23;;;20.37;;
7919;SDS011;18778;47.610;9.776;2023-02-15T16:27:41;36.63;;;21.50;;
7919;SDS011;18778;47.610;9.776;2023-02-15T16:30:22;37.87;;;23.20;;
7919;SDS011;18778;47.610;9.776;2023-02-15T16:32:54;35.27;;;22.23;;
7919;SDS011;18778;47.610;9.776;2023-02-15T16:35:29;42.80;;;26.07;;
7919;SDS011;18778;47.610;9.776;2023-02-15T16:37:54;47.67;;;28.67;;
7919;SDS011;18778;47.610;9.776;2023-02-15T16:42:52;41.50;;;23.73;;
7919;SDS011;18778;47.610;9.776;2023-02-15T16:45:22;49.10;;;27.97;;
7919;SDS011;18778;47.610;9.776;2023-02-15T16:47:51;45.23;;;25.17;;
7919;SDS011;18778;47.610;9.776;2023-02-15T16:50:28;53.07;;;28.20;;
7919;SDS011;18778;47.610;9.776;2023-02-15T16:52:59;51.57;;;28.50;;
7919;SDS011;18778;47.610;9.776;2023-02-15T16:55:27;55.97;;;28.27;;
7919;SDS011;18778;47.610;9.776;2023-02-15T16:58:02;52.10;;;27.67;;
7919;SDS011;18778;47.610;9.776;2023-02-15T17:00:31;59.03;;;28.00;;
7919;SDS011;18778;47.610;9.776;2023-02-15T17:03:03;59.50;;;32.30;;
7919;SDS011;18778;47.610;9.776;2023-02-15T17:05:42;58.30;;;28.50;;
7919;SDS011;18778;47.610;9.776;2023-02-15T17:08:41;60.87;;;29.40;;
7919;SDS011;18778;47.610;9.776;2023-02-15T17:11:15;61.60;;;29.83;;
7919;SDS011;18778;47.610;9.776;2023-02-15T17:16:32;64.50;;;30.23;;
7919;SDS011;18778;47.610;9.776;2023-02-15T17:19:00;56.70;;;27.60;;
7919;SDS011;18778;47.610;9.776;2023-02-15T17:21:31;53.63;;;27.67;;
7919;SDS011;18778;47.610;9.776;2023-02-15T17:24:02;56.30;;;28.33;;
7919;SDS011;18778;47.610;9.776;2023-02-15T17:26:32;58.60;;;27.50;;
7919;SDS011;18778;47.610;9.776;2023-02-15T17:30:02;55.07;;;27.90;;
7919;SDS011;18778;47.610;9.776;2023-02-15T17:32:00;74.57;;;34.43;;
7919;SDS011;18778;47.610;9.776;2023-02-15T17:37:13;55.40;;;29.63;;
7919;SDS011;18778;47.610;9.776;2023-02-15T17:39:48;56.27;;;29.17;;
7919;SDS011;18778;47.610;9.776;2023-02-15T17:42:13;64.77;;;30.17;;
7919;SDS011;18778;47.610;9.776;2023-02-15T17:44:39;65.13;;;31.90;;
7919;SDS011;18778;47.610;9.776;2023-02-15T17:47:04;54.37;;;29.67;;
7919;SDS011;18778;47.610;9.776;2023-02-15T17:49:30;49.40;;;28.07;;
7919;SDS011;18778;47.610;9.776;2023-02-15T17:51:59;48.93;;;27.20;;
7919;SDS011;18778;47.610;9.776;2023-02-15T17:54:26;62.03;;;30.73;;
7919;SDS011;18778;47.610;9.776;2023-02-15T17:57:12;61.47;;;30.60;;